Details From MDJB - Dr Joaquin Balaguer Intl
To MDPC - Punta Cana Intl
Flight Number -
Tags generated
Created
Modified
Stats Distance 92 nm / 171 km
Max Altitude 200 ft / 61 m
Waypoints 3
Social Downloads 2
Likes 0
Share VATSIM

Download

Looking for another format? Having issues loading an existing format? Contact us
Advertisement - Login to hide

Notes

Basic altitude profile: - Ascent Rate: 2500ft/min - Ascent Speed: 250kts - Cruise Altitude: 35000ft - Cruise Speed: 420kts - Descent Rate: 1500ft/min - Descent Speed: 250kts Options: - Use NATs: yes - Use PACOTS: yes - Use low airways: yes - Use high airways: yes

Route

MDJB PNA MDPC

ID Type Via Altitude Latitude Longitude Leg Dist Tot Dist Heading (true) Name
O MDJB APT - 0 ft / 0 m 18.57251˚ -69.98561˚ - 0 nm - Dr Joaquin Balaguer Intl
PNA DME - 200 ft / 61 m 18.56726˚ -68.38331˚ 91 nm 91 nm 90° / 90° PUNTA CANA VOR-DME
O MDPC APT - 0 ft / 0 m 18.57057˚ -68.36613˚ 0 nm 92 nm 78° / 78° Punta Cana Intl

Altitude Profile

Advertisement - Login to hide

MDJB

Details ICAO MDJB (JBQ)
Name Dr Joaquin Balaguer Intl
Region Dominican Republic
Timezone America/Santo_Domingo (UTC-4.0)
Stats Elevation 98 ft / 30 m (AMSL)
Location 18.572512° -69.985608°
Runways 1
Magnetic Variation 11.394° W

METAR

MDJB 171900Z 36011KT 9999 BKN022 31/23 Q1017 NOSIG

Decode

TAF

Not found

Departure Runways

ID Width Length Bearing (true) Bearing (mag) Surface Threshold Offset Overrun Length
01 100 ft / 30 m 5,448 ft / 1,661 m 6.40° 17.79° Asphalt 0 ft / 0 m 90 ft / 27 m
19 100 ft / 30 m 5,448 ft / 1,661 m 186.40° 197.79° Asphalt 0 ft / 0 m 105 ft / 32 m

MDPC

Details ICAO MDPC (PUJ)
Name Punta Cana Intl
Region Dominican Republic
Timezone America/Santo_Domingo (UTC-4.0)
Stats Elevation 46 ft / 14 m (AMSL)
Location 18.570574° -68.366130°
Runways 2
Magnetic Variation 12.180° W

METAR

MDPC 171900Z 06014KT 9999 SCT027 28/22 Q1017 NOSIG

Decode

TAF

Not found

Destination Runways

ID Width Length Bearing (true) Bearing (mag) Surface Threshold Offset Overrun Length
08 148 ft / 45 m 10,110 ft / 3,082 m 74.20° 86.38° Asphalt 0 ft / 0 m 374 ft / 114 m
09 148 ft / 45 m 10,163 ft / 3,098 m 84.79° 96.97° Asphalt 0 ft / 0 m 374 ft / 114 m
26 148 ft / 45 m 10,110 ft / 3,082 m 254.21° 266.39° Asphalt 0 ft / 0 m 374 ft / 114 m
27 148 ft / 45 m 10,163 ft / 3,098 m 264.80° 276.98° Asphalt 0 ft / 0 m 374 ft / 114 m

Popular Alternatives